createdAt,value
2016-04-15T00:00:52.863Z,98.87
2016-04-15T00:01:52.866Z,99.06
2016-04-15T00:02:52.853Z,98.68
2016-04-15T00:03:52.856Z,98.96
2016-04-15T00:04:52.827Z,98.77
2016-04-15T00:05:52.814Z,98.58
2016-04-15T00:06:52.817Z,98.58
2016-04-15T00:07:52.804Z,98.58
2016-04-15T00:08:52.790Z,98.58
2016-04-15T00:09:52.778Z,98.87
2016-04-15T00:10:52.781Z,98.96
2016-04-15T00:11:52.753Z,98.39
2016-04-15T00:12:52.756Z,98.96
2016-04-15T00:13:52.742Z,98.39
2016-04-15T00:14:52.745Z,98.68
2016-04-15T00:15:52.716Z,98.77
2016-04-15T00:16:52.719Z,98.68
2016-04-15T00:17:52.722Z,98.58
2016-04-15T00:18:52.708Z,98.39
2016-04-15T00:19:52.711Z,98.58
2016-04-15T00:20:52.697Z,98.58
2016-04-15T00:21:52.685Z,98.77
2016-04-15T00:22:52.672Z,98.68
2016-04-15T00:23:52.659Z,98.77
2016-04-15T00:24:52.662Z,98.77
2016-04-15T00:25:52.649Z,98.68
2016-04-15T00:26:52.636Z,98.72
2016-04-15T00:27:52.639Z,98.77
2016-04-15T00:28:52.626Z,98.54
2016-04-15T00:29:52.613Z,98.54
2016-04-15T00:30:52.599Z,98.72
2016-04-15T00:31:52.602Z,98.63
2016-04-15T00:32:52.575Z,98.72
2016-04-15T00:33:52.563Z,98.54
2016-04-15T00:34:52.565Z,98.72
2016-04-15T00:35:52.560Z,98.63
2016-04-15T00:36:52.546Z,98.72
2016-04-15T00:37:52.533Z,98.44
2016-04-15T00:38:52.535Z,98.72
2016-04-15T00:39:52.507Z,98.72
2016-04-15T00:40:52.526Z,98.54
2016-04-15T00:42:52.953Z,98.44
2016-04-15T00:43:52.486Z,98.54
2016-04-15T00:44:52.489Z,98.54
2016-04-15T00:45:52.476Z,98.54
2016-04-15T00:46:52.557Z,98.54
2016-04-15T00:47:52.451Z,98.44
2016-04-15T00:48:52.438Z,98.54
2016-04-15T00:49:52.425Z,98.44
2016-04-15T00:50:52.428Z,98.35
2016-04-15T00:51:52.415Z,98.44
2016-04-15T00:52:52.761Z,98.44
2016-04-15T00:53:52.405Z,98.54
2016-04-15T00:54:52.735Z,98.54
2016-04-15T00:55:52.878Z,98.35
2016-04-15T00:56:52.724Z,98.44
2016-04-15T00:57:53.680Z,98.54
2016-04-15T00:58:53.246Z,98.54
2016-04-15T00:59:52.373Z,98.44
2016-04-15T01:00:53.516Z,98.35
2016-04-15T01:01:53.129Z,98.63
2016-04-15T01:02:52.929Z,98.44
2016-04-15T01:03:52.307Z,98.72
2016-04-15T01:04:52.309Z,98.44
2016-04-15T01:05:52.296Z,98.63
2016-04-15T01:06:52.282Z,98.63
2016-04-15T01:07:52.598Z,98.44
2016-04-15T01:08:53.445Z,98.44
2016-04-15T01:09:53.276Z,98.44
2016-04-15T01:10:52.231Z,98.44
2016-04-15T01:11:53.156Z,98.54
2016-04-15T01:12:52.220Z,98.58
2016-04-15T01:13:52.208Z,98.58
2016-04-15T01:14:52.211Z,98.58
2016-04-15T01:15:52.213Z,98.58
2016-04-15T01:16:52.201Z,98.68
2016-04-15T01:17:52.187Z,98.77
2016-04-15T01:18:52.175Z,98.77
2016-04-15T01:19:52.162Z,98.77
2016-04-15T01:20:52.164Z,98.77
2016-04-15T01:21:52.136Z,98.58
2016-04-15T01:22:52.138Z,98.77
2016-04-15T01:23:52.125Z,98.68
2016-04-15T01:24:52.128Z,98.58
2016-04-15T01:25:52.115Z,98.77
2016-04-15T01:26:52.119Z,98.44
2016-04-15T01:27:52.089Z,98.68
2016-04-15T01:28:52.092Z,98.58
2016-04-15T01:29:52.220Z,98.54
2016-04-15T01:30:52.066Z,98.44
2016-04-15T01:31:52.069Z,98.54
2016-04-15T01:32:52.071Z,98.35
2016-04-15T01:33:52.043Z,98.63
2016-04-15T01:34:52.030Z,98.25
2016-04-15T01:35:52.018Z,98.63
2016-04-15T01:36:52.020Z,98.63
2016-04-15T01:37:52.007Z,98.35
2016-04-15T01:38:52.009Z,98.54
2016-04-15T01:39:51.996Z,98.54
2016-04-15T01:40:51.984Z,98.35
2016-04-15T01:41:51.970Z,98.44
2016-04-15T01:42:51.958Z,97.97
2016-04-15T01:43:51.960Z,98.44
2016-04-15T01:44:51.979Z,98.35
2016-04-15T01:45:51.935Z,98.25
2016-04-15T01:46:51.937Z,98.16
2016-04-15T01:47:51.909Z,98.25
2016-04-15T01:48:51.895Z,97.78
2016-04-15T01:49:51.898Z,98.06
2016-04-15T01:50:51.917Z,97.97
2016-04-15T01:51:51.888Z,98.06
2016-04-15T01:52:51.891Z,98.06
2016-04-15T01:53:51.877Z,97.87
2016-04-15T01:54:51.864Z,97.97
2016-04-15T01:55:51.852Z,97.78
2016-04-15T01:56:51.854Z,97.87
2016-04-15T01:57:51.827Z,97.97
2016-04-15T01:58:51.829Z,97.97
2016-04-15T01:59:51.675Z,97.97
2016-04-15T02:00:52.256Z,97.97
2016-04-15T02:01:51.900Z,97.87
2016-04-15T02:02:51.980Z,97.87
2016-04-15T02:04:05.970Z,97.87
2016-04-15T02:04:51.766Z,98.06
2016-04-15T02:05:51.769Z,97.87
2016-04-15T02:06:51.772Z,98.06
2016-04-15T02:07:51.744Z,98.16
2016-04-15T02:08:51.732Z,97.87
2016-04-15T02:09:52.280Z,97.97
2016-04-15T02:10:51.705Z,98.16
2016-04-15T02:11:51.708Z,97.97
2016-04-15T02:12:52.601Z,98.16
2016-04-15T02:13:51.698Z,97.87
2016-04-15T02:14:51.731Z,98.06
2016-04-15T02:15:51.687Z,98.06
2016-04-15T02:16:51.706Z,97.87
2016-04-15T02:17:51.645Z,97.87
2016-04-15T02:18:51.648Z,97.87
2016-04-15T02:19:51.635Z,98.06
2016-04-15T02:20:51.622Z,97.87
2016-04-15T02:21:51.609Z,97.87
2016-04-15T02:22:51.596Z,97.87
2016-04-15T02:23:51.600Z,97.97
2016-04-15T02:24:51.586Z,97.78
2016-04-15T02:25:51.589Z,97.87
2016-04-15T02:26:51.561Z,97.87
2016-04-15T02:27:51.578Z,97.87
2016-04-15T02:28:50.816Z,97.78
2016-04-15T02:29:51.694Z,97.78
2016-04-15T02:30:51.540Z,97.78
2016-04-15T02:31:51.527Z,97.78
2016-04-15T02:32:51.530Z,97.78
2016-04-15T02:33:51.516Z,97.78
2016-04-15T02:34:51.504Z,97.97
2016-04-15T02:35:51.490Z,97.87
2016-04-15T02:36:51.477Z,98.06
2016-04-15T02:37:51.465Z,97.87
2016-04-15T02:38:51.468Z,97.78
2016-04-15T02:39:51.455Z,98.16
2016-04-15T02:40:51.442Z,97.87
2016-04-15T02:41:51.429Z,98.16
2016-04-15T02:42:51.432Z,97.78
2016-04-15T02:43:51.403Z,97.87
2016-04-15T02:44:51.437Z,97.87
2016-04-15T02:45:51.376Z,97.87
2016-04-15T02:46:51.379Z,97.87
2016-04-15T02:47:51.382Z,97.97
2016-04-15T02:48:51.370Z,97.92
2016-04-15T02:49:51.357Z,98.06
2016-04-15T02:50:51.345Z,97.97
2016-04-15T02:51:51.347Z,97.87
2016-04-15T02:52:51.334Z,97.92
2016-04-15T02:53:51.321Z,97.97
2016-04-15T02:54:51.323Z,97.97
2016-04-15T02:55:51.311Z,97.97
2016-04-15T02:56:51.313Z,97.92
2016-04-15T02:57:51.300Z,98.06
2016-04-15T02:58:51.287Z,97.97
2016-04-15T02:59:51.258Z,97.87
2016-04-15T03:00:51.261Z,97.92
2016-04-15T03:01:51.249Z,97.97
2016-04-15T03:02:51.252Z,98.01
2016-04-15T03:03:51.238Z,97.97
2016-04-15T03:04:51.210Z,97.97
2016-04-15T03:05:51.213Z,97.97
2016-04-15T03:06:51.199Z,97.87
2016-04-15T03:07:51.202Z,98.06
2016-04-15T03:08:51.189Z,97.87
2016-04-15T03:09:51.176Z,98.06
2016-04-15T03:10:51.179Z,97.97
2016-04-15T03:11:51.165Z,98.06
2016-04-15T03:12:51.153Z,98.06
2016-04-15T03:13:51.156Z,97.78
2016-04-15T03:14:51.111Z,97.97
2016-04-15T03:15:51.114Z,97.97
2016-04-15T03:16:51.101Z,97.78
2016-04-15T03:17:51.884Z,97.87
2016-04-15T03:18:51.778Z,97.97
2016-04-15T03:19:51.578Z,97.87
2016-04-15T03:20:52.159Z,97.78
2016-04-15T03:21:51.428Z,97.97
2016-04-15T03:22:51.055Z,97.97
2016-04-15T03:23:51.042Z,97.97
2016-04-15T03:24:51.029Z,97.78
2016-04-15T03:25:51.016Z,97.78
2016-04-15T03:26:52.050Z,97.78
2016-04-15T03:27:51.005Z,97.78
2016-04-15T03:29:51.292Z,97.87
2016-04-15T03:30:51.936Z,97.78
2016-04-15T03:31:50.970Z,97.97
2016-04-15T03:32:51.738Z,97.97
2016-04-15T03:33:51.147Z,97.97
2016-04-15T03:34:50.931Z,97.97
2016-04-15T03:35:50.933Z,97.97
2016-04-15T03:36:50.921Z,98.16
2016-04-15T03:37:50.938Z,97.97
2016-04-15T03:38:50.910Z,97.97
2016-04-15T03:39:50.897Z,97.78
2016-04-15T03:40:50.885Z,97.97
2016-04-15T03:41:50.887Z,97.78
2016-04-15T03:42:50.859Z,97.78
2016-04-15T03:43:50.846Z,97.87
2016-04-15T03:44:50.864Z,97.78
2016-04-15T03:45:50.835Z,97.87
2016-04-15T03:46:50.823Z,97.78
2016-04-15T03:47:50.826Z,97.97
2016-04-15T03:48:50.812Z,97.97
2016-04-15T03:49:50.799Z,97.78
2016-04-15T03:50:50.801Z,97.78
2016-04-15T03:51:50.789Z,97.87
2016-04-15T03:52:50.761Z,97.87
2016-04-15T03:53:50.763Z,97.97
2016-04-15T03:54:50.750Z,98.06
2016-04-15T03:55:50.737Z,97.87
2016-04-15T03:56:50.724Z,97.97
2016-04-15T03:57:50.711Z,97.78
2016-04-15T03:58:50.713Z,97.87
2016-04-15T03:59:50.716Z,97.87
2016-04-15T04:00:50.703Z,98.16
2016-04-15T04:01:50.691Z,97.78
2016-04-15T04:02:50.678Z,98.16
2016-04-15T04:03:50.680Z,98.35
2016-04-15T04:04:50.652Z,98.16
2016-04-15T04:05:50.655Z,97.97
2016-04-15T04:06:50.641Z,98.16
2016-04-15T04:07:50.644Z,98.16
2016-04-15T04:08:50.616Z,98.16
2016-04-15T04:09:50.618Z,98.44
2016-04-15T04:10:50.605Z,98.35
2016-04-15T04:11:50.593Z,98.44
2016-04-15T04:12:50.580Z,98.54
2016-04-15T04:13:50.567Z,98.54
2016-04-15T04:14:50.570Z,98.54
2016-04-15T04:15:50.573Z,98.54
2016-04-15T04:16:50.559Z,98.25
2016-04-15T04:17:50.531Z,98.44
2016-04-15T04:18:50.534Z,98.54
2016-04-15T04:19:50.504Z,98.54
2016-04-15T04:20:50.539Z,98.44
2016-04-15T04:21:50.495Z,98.54
2016-04-15T04:22:50.497Z,98.35
2016-04-15T04:23:50.484Z,98.54
2016-04-15T04:24:50.486Z,98.3
2016-04-15T04:25:50.474Z,98.49
2016-04-15T04:26:50.461Z,98.58
2016-04-15T04:27:50.448Z,98.58
2016-04-15T04:28:50.451Z,98.49
2016-04-15T04:29:50.439Z,98.58
2016-04-15T04:30:50.441Z,98.58
2016-04-15T04:31:50.412Z,98.49
2016-04-15T04:32:50.415Z,98.58
2016-04-15T04:33:50.402Z,98.58
2016-04-15T04:34:50.389Z,98.49
2016-04-15T04:36:51.316Z,98.68
2016-04-15T04:37:50.366Z,98.68
2016-04-15T04:38:50.368Z,98.63
2016-04-15T04:39:51.105Z,98.63
2016-04-15T04:41:50.876Z,98.44
2016-04-15T04:42:50.332Z,98.54
2016-04-15T04:43:50.319Z,98.73
2016-04-15T04:44:50.307Z,98.73
2016-04-15T04:45:51.481Z,98.73
2016-04-15T04:46:51.296Z,98.73
2016-04-15T04:47:50.455Z,98.92
2016-04-15T04:48:50.879Z,99.01
2016-04-15T04:49:50.273Z,99.01
2016-04-15T04:50:51.150Z,99.01
2016-04-15T04:51:50.279Z,98.35
2016-04-15T04:52:50.259Z,98.82
2016-04-15T04:53:50.251Z,98.82
2016-04-15T04:54:50.274Z,98.49
2016-04-15T04:55:50.261Z,98.97
2016-04-15T04:56:50.217Z,98.87
2016-04-15T04:57:50.219Z,98.87
2016-04-15T04:58:50.206Z,98.97
2016-04-15T04:59:50.194Z,98.97
2016-04-15T05:00:50.056Z,98.97
2016-04-15T05:01:50.183Z,98.87
2016-04-15T05:02:50.170Z,98.87
2016-04-15T05:03:50.158Z,98.78
2016-04-15T05:04:50.160Z,98.78
2016-04-15T05:05:50.147Z,98.78
2016-04-15T05:06:50.133Z,98.68
2016-04-15T05:07:50.121Z,98.87
2016-04-15T05:08:50.124Z,98.78
2016-04-15T05:09:50.126Z,98.49
2016-04-15T05:10:50.114Z,99.06
2016-04-15T05:11:50.101Z,98.87
2016-04-15T05:12:50.088Z,98.78
2016-04-15T05:13:50.091Z,98.87
2016-04-15T05:14:50.077Z,98.68
2016-04-15T05:15:50.080Z,98.92
2016-04-15T05:16:50.068Z,98.83
2016-04-15T05:17:50.070Z,98.83
2016-04-15T05:18:50.057Z,98.73
2016-04-15T05:19:50.059Z,98.92
2016-04-15T05:20:50.046Z,98.92
2016-04-15T05:21:50.049Z,98.92
2016-04-15T05:22:50.036Z,98.54
2016-04-15T05:23:50.023Z,98.59
2016-04-15T05:24:50.011Z,99.07
2016-04-15T05:25:50.013Z,98.88
2016-04-15T05:26:50.000Z,98.88
2016-04-15T05:27:50.019Z,99.11
2016-04-15T05:28:49.990Z,99.21
2016-04-15T05:29:49.993Z,99.07
2016-04-15T05:30:50.011Z,98.88
2016-04-15T05:31:49.983Z,98.69
2016-04-15T05:32:49.969Z,98.88
2016-04-15T05:33:49.972Z,99.02
2016-04-15T05:34:49.959Z,99.02
2016-04-15T05:35:49.961Z,98.93
2016-04-15T05:36:49.950Z,98.98
2016-04-15T05:37:49.952Z,98.98
2016-04-15T05:38:49.955Z,98.98
2016-04-15T05:39:49.958Z,99.22
2016-04-15T05:40:49.944Z,99.13
2016-04-15T05:41:49.947Z,99.13
2016-04-15T05:42:49.934Z,99.13
2016-04-15T05:43:49.937Z,99.27
2016-04-15T05:44:49.940Z,99.08
2016-04-15T05:45:50.020Z,99.08
2016-04-15T05:46:49.929Z,98.89
2016-04-15T05:47:49.932Z,98.94
2016-04-15T05:48:49.918Z,99.41
2016-04-15T05:49:49.921Z,99.6
2016-04-15T05:50:49.909Z,99.13
2016-04-15T05:51:49.926Z,98.94
2016-04-15T05:52:49.899Z,99.13
2016-04-15T05:53:49.917Z,99.18
2016-04-15T05:54:51.498Z,99.18
2016-04-15T05:55:50.016Z,98.99
2016-04-15T05:56:50.925Z,99.18
2016-04-15T05:57:51.115Z,99.08
2016-04-15T05:58:50.414Z,98.99
2016-04-15T05:59:49.901Z,99.18
2016-04-15T06:00:49.983Z,99.08
2016-04-15T06:01:50.219Z,99.18
2016-04-15T06:02:50.253Z,99.18
2016-04-15T06:03:50.661Z,98.99
2016-04-15T06:04:50.774Z,98.8
2016-04-15T06:05:50.449Z,99.13
2016-04-15T06:06:50.107Z,98.8
2016-04-15T06:07:50.266Z,98.75
2016-04-15T06:08:51.113Z,98.85
2016-04-15T06:09:49.960Z,98.47
2016-04-15T06:10:49.900Z,98.85
2016-04-15T06:11:49.872Z,98.56
2016-04-15T06:12:50.202Z,98.56
2016-04-15T06:13:49.877Z,98.47
2016-04-15T06:14:49.879Z,98.56
2016-04-15T06:15:49.898Z,98.66
2016-04-15T06:16:49.885Z,98.66
2016-04-15T06:17:49.871Z,98.94
2016-04-15T06:18:49.890Z,98.85
2016-04-15T06:19:49.893Z,98.85
2016-04-15T06:20:49.896Z,98.66
2016-04-15T06:21:49.904Z,98.94
2016-04-15T06:22:49.876Z,98.85
2016-04-15T06:23:49.879Z,98.56
2016-04-15T06:24:49.882Z,98.56
2016-04-15T06:25:49.884Z,98.71
2016-04-15T06:26:49.887Z,98.8
2016-04-15T06:27:49.879Z,98.8
2016-04-15T06:28:49.882Z,98.61
2016-04-15T06:29:49.868Z,98.57
2016-04-15T06:30:49.965Z,98.66
2016-04-15T06:31:49.874Z,98.75
2016-04-15T06:32:49.893Z,98.85
2016-04-15T06:33:49.864Z,98.57
2016-04-15T06:34:49.899Z,98.99
2016-04-15T06:35:49.885Z,98.61
2016-04-15T06:36:49.888Z,98.61
2016-04-15T06:37:49.875Z,98.61
2016-04-15T06:38:49.893Z,98.42
2016-04-15T06:39:49.896Z,98.61
2016-04-15T06:40:49.882Z,98.33
2016-04-15T06:41:49.885Z,98.57
2016-04-15T06:42:49.888Z,99.14
2016-04-15T06:43:49.890Z,98.28
2016-04-15T06:44:49.893Z,98.71
2016-04-15T06:45:49.880Z,98.43
2016-04-15T06:46:49.898Z,98.76
2016-04-15T06:47:49.901Z,98.66
2016-04-15T06:48:49.903Z,98.76
2016-04-15T06:49:49.907Z,98.71
2016-04-15T06:50:49.925Z,99.1
2016-04-15T06:51:49.912Z,99.05
2016-04-15T06:52:49.915Z,99.24
2016-04-15T06:53:49.917Z,99.01
2016-04-15T06:54:49.920Z,98.72
2016-04-15T06:55:49.922Z,98.57
2016-04-15T06:56:49.785Z,98.96
2016-04-15T06:57:49.944Z,98.57
2016-04-15T06:58:49.947Z,98.96
2016-04-15T06:59:49.950Z,97.9
2016-04-15T07:00:49.953Z,97.38
2016-04-15T07:01:49.971Z,97.09
2016-04-15T07:02:49.974Z,96.89
2016-04-15T07:03:49.976Z,96.51
2016-04-15T07:04:49.979Z,96.03
2016-04-15T07:05:49.982Z,96.03
2016-04-15T07:06:49.999Z,96.32
2016-04-15T07:07:49.987Z,96.22
2016-04-15T07:08:50.021Z,96.32
2016-04-15T07:09:50.007Z,96.22
2016-04-15T07:10:50.010Z,96.85
2016-04-15T07:11:50.012Z,97.14
2016-04-15T07:12:50.031Z,97.61
2016-04-15T07:13:51.534Z,97.33
2016-04-15T07:14:50.037Z,97.47
2016-04-15T07:15:50.212Z,97.66
2016-04-15T07:16:50.042Z,97.28
2016-04-15T07:17:51.248Z,97.23
2016-04-15T07:18:50.064Z,96.94
2016-04-15T07:19:50.098Z,97.14
2016-04-15T07:20:50.084Z,96.94
2016-04-15T07:21:50.138Z,96.85
2016-04-15T07:22:51.360Z,97.04
2016-04-15T07:23:51.082Z,96.75
2016-04-15T07:24:50.380Z,96.37
2016-04-15T07:26:04.870Z,96.8
2016-04-15T07:27:50.112Z,97.23
2016-04-15T07:28:50.757Z,96.94
2016-04-15T07:29:50.181Z,97.33
2016-04-15T07:30:50.137Z,97.42
2016-04-15T07:31:50.140Z,97.33
2016-04-15T07:32:50.157Z,97.56
2016-04-15T07:33:50.160Z,97.95
2016-04-15T07:34:50.162Z,97.19
2016-04-15T07:35:50.165Z,97.47
2016-04-15T07:36:50.184Z,97.56
2016-04-15T07:37:50.170Z,97.66
2016-04-15T07:38:50.173Z,97.56
2016-04-15T07:39:50.192Z,97.47
2016-04-15T07:40:50.194Z,97.56
2016-04-15T07:41:50.198Z,97.71
2016-04-15T07:42:50.216Z,97.47
2016-04-15T07:43:50.219Z,97.09
2016-04-15T07:44:50.237Z,97.09
2016-04-15T07:45:50.224Z,96.89
2016-04-15T07:46:50.242Z,97.09
2016-04-15T07:47:50.244Z,97.19
2016-04-15T07:48:50.263Z,96.42
2016-04-15T07:49:50.266Z,96.42
2016-04-15T07:50:50.268Z,97.19
2016-04-15T07:51:50.286Z,97.09
2016-04-15T07:52:50.273Z,96.89
2016-04-15T07:53:50.291Z,96.89
2016-04-15T07:54:50.294Z,96.8
2016-04-15T07:55:50.312Z,97.09
2016-04-15T07:56:50.316Z,97.24
2016-04-15T07:57:50.318Z,96.94
2016-04-15T07:58:50.337Z,97.33
2016-04-15T07:59:50.323Z,97.33
2016-04-15T08:00:50.357Z,97.42
2016-04-15T08:01:50.345Z,97.04
2016-04-15T08:02:50.362Z,97.04
2016-04-15T08:03:50.365Z,96.99
2016-04-15T08:04:50.368Z,96.89
2016-04-15T08:05:50.371Z,97.38
2016-04-15T08:06:50.390Z,96.8
2016-04-15T08:07:50.393Z,96.89
2016-04-15T08:08:50.395Z,96.61
2016-04-15T08:09:50.414Z,96.08
2016-04-15T08:10:50.416Z,96.51
2016-04-15T08:11:50.419Z,96.18
2016-04-15T08:12:50.422Z,96.66
2016-04-15T08:13:50.439Z,96.27
2016-04-15T08:14:50.427Z,95.84
2016-04-15T08:15:50.460Z,95.17
2016-04-15T08:16:50.448Z,95.84
2016-04-15T08:17:50.466Z,95.84
2016-04-15T08:18:50.484Z,95.55
2016-04-15T08:19:50.487Z,95.94
2016-04-15T08:20:50.489Z,95.94
2016-04-15T08:21:50.498Z,96.32
2016-04-15T08:22:50.517Z,96.13
2016-04-15T08:23:50.488Z,96.22
2016-04-15T08:24:50.522Z,95.89
2016-04-15T08:25:50.508Z,96.51
2016-04-15T08:26:50.511Z,96.7
2016-04-15T08:27:50.530Z,96.61
2016-04-15T08:28:50.516Z,96.66
2016-04-15T08:29:50.536Z,96.56
2016-04-15T08:30:50.538Z,96.56
2016-04-15T08:31:50.546Z,97.14
2016-04-15T08:32:51.638Z,96.85
2016-04-15T08:33:52.370Z,97.19
2016-04-15T08:34:50.681Z,97.47
2016-04-15T08:35:51.696Z,97.28
2016-04-15T08:37:51.052Z,97.09
2016-04-15T08:38:51.070Z,97.47
2016-04-15T08:39:50.838Z,97.66
2016-04-15T08:40:50.919Z,98.05
2016-04-15T08:41:52.092Z,97.38
2016-04-15T08:42:51.616Z,97.56
2016-04-15T08:43:50.889Z,97.86
2016-04-15T08:44:51.273Z,98.05
2016-04-15T08:45:51.094Z,97.66
2016-04-15T08:46:51.038Z,97.76
2016-04-15T08:47:51.387Z,98.05
2016-04-15T08:48:50.938Z,97.95
2016-04-15T08:49:51.552Z,97.95
2016-04-15T08:50:50.947Z,97.86
2016-04-15T08:51:50.952Z,97.56
2016-04-15T08:52:50.972Z,97.95
2016-04-15T08:53:50.959Z,98.24
2016-04-15T08:54:50.979Z,98.19
2016-04-15T08:55:50.982Z,98.1
2016-04-15T08:56:50.985Z,98.19
2016-04-15T08:57:50.972Z,98.29
2016-04-15T08:58:50.991Z,98.29
2016-04-15T08:59:50.979Z,98.48
2016-04-15T09:00:51.012Z,98.38
2016-04-15T09:01:51.000Z,97.81
2016-04-15T09:02:51.003Z,98.1
2016-04-15T09:03:51.021Z,97.91
2016-04-15T09:04:51.009Z,97.61
2016-04-15T09:05:51.012Z,98.29
2016-04-15T09:06:51.014Z,98.48
2016-04-15T09:07:51.017Z,98.48
2016-04-15T09:08:51.034Z,98.34
2016-04-15T09:09:51.037Z,97.57
2016-04-15T09:10:51.040Z,97.52
2016-04-15T09:11:51.042Z,97.61
2016-04-15T09:12:51.045Z,98.29
2016-04-15T09:13:51.047Z,98.19
2016-04-15T09:14:51.050Z,98.29
2016-04-15T09:15:51.053Z,98.24
2016-04-15T09:16:51.056Z,98.14
2016-04-15T09:17:51.059Z,98.34
2016-04-15T09:18:51.061Z,98.53
2016-04-15T09:19:51.080Z,98.34
2016-04-15T09:20:51.082Z,98.43
2016-04-15T09:21:51.085Z,98.24
2016-04-15T09:22:51.088Z,98.43
2016-04-15T09:23:51.091Z,98.63
2016-04-15T09:24:51.077Z,98.05
2016-04-15T09:25:51.113Z,98.43
2016-04-15T09:26:51.099Z,97.76
2016-04-15T09:27:51.118Z,97.76
2016-04-15T09:28:51.104Z,97.96
2016-04-15T09:29:51.123Z,98.34
2016-04-15T09:30:51.110Z,97.96
2016-04-15T09:31:51.112Z,97.19
2016-04-15T09:32:51.115Z,97.47
2016-04-15T09:33:51.133Z,98.14
2016-04-15T09:34:51.136Z,98.14
2016-04-15T09:35:51.139Z,98.24
2016-04-15T09:36:51.142Z,97.62
2016-04-15T09:37:51.160Z,97.52
2016-04-15T09:38:51.147Z,96.99
2016-04-15T09:39:51.165Z,97.19
2016-04-15T09:40:51.152Z,97.47
2016-04-15T09:41:51.170Z,97.76
2016-04-15T09:42:51.173Z,97.76
2016-04-15T09:43:51.191Z,98.39
2016-04-15T09:44:51.163Z,98.58
2016-04-15T09:45:51.180Z,97.91
2016-04-15T09:46:51.183Z,97.81
2016-04-15T09:47:51.186Z,97.81
2016-04-15T09:48:51.189Z,97.24
2016-04-15T09:49:51.192Z,97.14
2016-04-15T09:50:51.210Z,97.71
2016-04-15T09:51:52.041Z,97.24
2016-04-15T09:52:52.355Z,97.42
2016-04-15T09:54:51.518Z,97.62
2016-04-15T09:55:52.364Z,97.91
2016-04-15T09:56:51.461Z,97.71
2016-04-15T09:57:51.933Z,97.86
2016-04-15T09:58:51.247Z,97.47
2016-04-15T09:59:51.250Z,97.09
2016-04-15T10:00:52.315Z,96.99
2016-04-15T10:01:51.255Z,96.7
2016-04-15T10:02:52.695Z,96.56
2016-04-15T10:03:52.870Z,96.66
2016-04-15T10:04:51.373Z,96.56
2016-04-15T10:05:51.844Z,96.75
2016-04-15T10:06:51.268Z,96.75
2016-04-15T10:07:51.287Z,96.94
2016-04-15T10:08:51.353Z,97.52
2016-04-15T10:09:51.293Z,97.28
2016-04-15T10:10:51.451Z,97.33
2016-04-15T10:11:51.298Z,97.42
2016-04-15T10:12:51.316Z,96.7
2016-04-15T10:13:51.334Z,97.42
2016-04-15T10:14:51.322Z,97.04
2016-04-15T10:15:51.324Z,97.42
2016-04-15T10:16:51.342Z,97.04
2016-04-15T10:17:51.329Z,97.24
2016-04-15T10:18:51.347Z,97.24
2016-04-15T10:19:51.335Z,97.28
2016-04-15T10:20:51.353Z,97.38
2016-04-15T10:21:51.356Z,97.38
2016-04-15T10:22:51.374Z,97.38
2016-04-15T10:23:51.361Z,96.85
2016-04-15T10:24:51.379Z,96.27
2016-04-15T10:25:51.382Z,95.89
2016-04-15T10:26:51.385Z,95.36
2016-04-15T10:27:51.404Z,95.17
2016-04-15T10:28:51.375Z,95.94
2016-04-15T10:29:51.378Z,95.55
2016-04-15T10:30:51.412Z,95.65
2016-04-15T10:31:51.524Z,95.84
2016-04-15T10:32:51.401Z,95.84
2016-04-15T10:33:51.388Z,96.03
2016-04-15T10:34:51.406Z,95.45
2016-04-15T10:35:51.409Z,95.6
2016-04-15T10:36:51.428Z,95.94
2016-04-15T10:37:51.414Z,95.6
2016-04-15T10:38:51.434Z,95.79
2016-04-15T10:39:51.436Z,95.89
2016-04-15T10:40:51.423Z,96.27
2016-04-15T10:41:51.425Z,96.18
2016-04-15T10:42:51.444Z,96.22
2016-04-15T10:43:51.447Z,96.51
2016-04-15T10:44:51.433Z,96.42
2016-04-15T10:45:51.436Z,96.22
2016-04-15T10:46:51.594Z,95.6
2016-04-15T10:47:51.457Z,95.51
2016-04-15T10:48:51.444Z,95.79
2016-04-15T10:49:51.462Z,95.79
2016-04-15T10:50:51.450Z,95.79
2016-04-15T10:51:51.468Z,96.27
2016-04-15T10:52:51.455Z,96.61
2016-04-15T10:53:51.473Z,96.37
2016-04-15T10:54:51.460Z,96.42
2016-04-15T10:55:51.463Z,96.7
2016-04-15T10:56:51.466Z,96.61
2016-04-15T10:57:51.453Z,96.8
2016-04-15T10:58:51.472Z,96.8
2016-04-15T10:59:51.474Z,96.89
2016-04-15T11:00:51.477Z,97.09
2016-04-15T11:01:51.839Z,97.19
2016-04-15T11:02:51.482Z,97.28
2016-04-15T11:03:51.485Z,97.19
2016-04-15T11:04:51.487Z,97.19
2016-04-15T11:05:51.506Z,97.47
2016-04-15T11:06:51.492Z,97.47
2016-04-15T11:07:51.495Z,97.56
2016-04-15T11:08:51.482Z,97.66
2016-04-15T11:09:51.501Z,97.09
2016-04-15T11:10:51.863Z,96.85
2016-04-15T11:11:51.818Z,96.75
2016-04-15T11:12:52.009Z,96.47
2016-04-15T11:13:52.121Z,96.03
2016-04-15T11:14:53.123Z,95.56
2016-04-15T11:15:51.611Z,95.6
2016-04-15T11:16:51.956Z,95.41
2016-04-15T11:17:51.506Z,96.08
2016-04-15T11:18:51.524Z,95.94
2016-04-15T11:19:52.183Z,96.42
2016-04-15T11:20:51.514Z,96.51
2016-04-15T11:21:51.752Z,96.61
2016-04-15T11:22:51.802Z,97.09
2016-04-15T11:23:51.663Z,96.7
2016-04-15T11:24:52.307Z,97.09
2016-04-15T11:25:51.527Z,97.28
2016-04-15T11:26:51.562Z,96.8
2016-04-15T11:27:52.080Z,97.38
2016-04-15T11:28:51.536Z,97.28
2016-04-15T11:29:51.524Z,97.13
2016-04-15T11:30:51.527Z,96.94
2016-04-15T11:31:51.529Z,97.13
2016-04-15T11:32:51.532Z,97.13
2016-04-15T11:33:51.518Z,97.04
2016-04-15T11:34:51.365Z,97.33
2016-04-15T11:35:51.540Z,97.33
2016-04-15T11:36:51.526Z,97.61
2016-04-15T11:37:51.545Z,97.42
2016-04-15T11:38:51.515Z,97.52
2016-04-15T11:39:51.551Z,97.42
2016-04-15T11:40:51.521Z,97.42
2016-04-15T11:41:51.462Z,97.61
2016-04-15T11:42:51.526Z,97.9
2016-04-15T11:43:51.529Z,97.8
2016-04-15T11:44:51.532Z,97.37
2016-04-15T11:45:51.534Z,97.47
2016-04-15T11:46:51.537Z,97.66
2016-04-15T11:47:51.525Z,97.66
2016-04-15T11:48:51.527Z,97.37
2016-04-15T11:49:51.530Z,97.66
2016-04-15T11:50:51.533Z,98.04
2016-04-15T11:51:51.550Z,97.95
2016-04-15T11:52:51.538Z,98.14
2016-04-15T11:53:51.541Z,97.61
2016-04-15T11:54:51.527Z,98.28
2016-04-15T11:55:51.530Z,98.09
2016-04-15T11:56:51.518Z,98.19
2016-04-15T11:57:50.802Z,98.86
2016-04-15T11:58:51.524Z,98.66
2016-04-15T11:59:51.526Z,98.95
2016-04-15T12:00:51.529Z,98.95
2016-04-15T12:01:51.531Z,98.81
2016-04-15T12:02:51.518Z,98.43
2016-04-15T12:03:51.536Z,98.33
2016-04-15T12:04:51.539Z,98.52
2016-04-15T12:05:51.526Z,97.85
2016-04-15T12:06:51.529Z,98.24
2016-04-15T12:07:51.515Z,97.75
2016-04-15T12:08:51.691Z,98.33
2016-04-15T12:09:51.523Z,98.04
2016-04-15T12:10:51.542Z,98.24
2016-04-15T12:11:51.357Z,98.52
2016-04-15T12:12:51.531Z,98.28
2016-04-15T12:13:51.534Z,98.66
2016-04-15T12:14:51.521Z,98.09
2016-04-15T12:15:51.539Z,97.99
2016-04-15T12:16:51.541Z,98.75
2016-04-15T12:17:51.530Z,98.66
2016-04-15T12:18:51.516Z,98.66
2016-04-15T12:19:51.519Z,98.38
2016-04-15T12:20:51.522Z,98.38
2016-04-15T12:21:51.524Z,98.28
2016-04-15T12:22:51.527Z,98.38
2016-04-15T12:23:51.513Z,98.28
2016-04-15T12:24:51.516Z,98.28
2016-04-15T12:25:51.529Z,98.47
2016-04-15T12:26:51.531Z,98.28
2016-04-15T12:27:51.519Z,98.95
2016-04-15T12:28:51.365Z,98.57
2016-04-15T12:29:51.790Z,98.85
2016-04-15T12:30:51.512Z,97.9
2016-04-15T12:32:05.701Z,98.09
2016-04-15T12:32:51.564Z,97.9
2016-04-15T12:33:51.660Z,98.57
2016-04-15T12:34:52.741Z,98.47
2016-04-15T12:36:05.697Z,98.57
2016-04-15T12:36:51.512Z,98.66
2016-04-15T12:37:51.515Z,98.66
2016-04-15T12:38:52.267Z,98.66
2016-04-15T12:39:52.880Z,98.47
2016-04-15T12:40:51.507Z,98.33
2016-04-15T12:41:51.900Z,99.19
2016-04-15T12:42:52.122Z,98.33
2016-04-15T12:43:51.858Z,98.42
2016-04-15T12:44:51.518Z,98.71
2016-04-15T12:45:52.020Z,98.33
2016-04-15T12:46:51.821Z,98.42
2016-04-15T12:47:51.510Z,98.42
2016-04-15T12:48:51.497Z,98.61
2016-04-15T12:49:51.500Z,98.52
2016-04-15T12:50:51.502Z,98.42
2016-04-15T12:51:51.490Z,98.52
2016-04-15T12:52:51.507Z,98.61
2016-04-15T12:53:51.495Z,98.71
2016-04-15T12:54:51.497Z,98.61
2016-04-15T12:55:51.500Z,98.66
2016-04-15T12:56:51.503Z,98.47
2016-04-15T12:57:51.490Z,98.57
2016-04-15T12:58:51.509Z,98.37
2016-04-15T12:59:51.480Z,98.47
2016-04-15T13:00:51.483Z,98.8